sensor_id;sensor_type;location;lat;lon;timestamp;temperature;humidity
21459;DHT22;10891;49.350;19.386;2023-02-19T00:01:00;6.30;99.90
21459;DHT22;10891;49.350;19.386;2023-02-19T00:03:29;6.40;99.90
21459;DHT22;10891;49.350;19.386;2023-02-19T00:05:56;6.30;99.90
21459;DHT22;10891;49.350;19.386;2023-02-19T00:08:23;6.30;99.90
21459;DHT22;10891;49.350;19.386;2023-02-19T00:10:50;6.40;99.90
21459;DHT22;10891;49.350;19.386;2023-02-19T00:13:17;6.40;99.90
21459;DHT22;10891;49.350;19.386;2023-02-19T00:15:46;6.30;99.90
21459;DHT22;10891;49.350;19.386;2023-02-19T00:18:12;6.40;99.90
21459;DHT22;10891;49.350;19.386;2023-02-19T00:20:39;6.50;99.90
21459;DHT22;10891;49.350;19.386;2023-02-19T00:23:06;6.40;99.90
21459;DHT22;10891;49.350;19.386;2023-02-19T00:25:35;6.50;99.90
21459;DHT22;10891;49.350;19.386;2023-02-19T00:28:02;6.50;99.90
21459;DHT22;10891;49.350;19.386;2023-02-19T00:30:29;6.50;99.90
21459;DHT22;10891;49.350;19.386;2023-02-19T00:32:57;6.50;99.90
21459;DHT22;10891;49.350;19.386;2023-02-19T00:35:24;6.50;99.90
21459;DHT22;10891;49.350;19.386;2023-02-19T00:37:51;6.50;99.90
21459;DHT22;10891;49.350;19.386;2023-02-19T00:40:18;6.50;99.90
21459;DHT22;10891;49.350;19.386;2023-02-19T00:42:45;6.50;99.90
21459;DHT22;10891;49.350;19.386;2023-02-19T00:45:12;6.50;99.90
21459;DHT22;10891;49.350;19.386;2023-02-19T00:47:38;6.50;99.90
21459;DHT22;10891;49.350;19.386;2023-02-19T00:50:07;6.40;99.90
21459;DHT22;10891;49.350;19.386;2023-02-19T00:52:34;6.40;99.90
21459;DHT22;10891;49.350;19.386;2023-02-19T00:55:01;6.30;99.90
21459;DHT22;10891;49.350;19.386;2023-02-19T00:57:28;6.40;99.90
21459;DHT22;10891;49.350;19.386;2023-02-19T00:59:55;6.30;99.90
21459;DHT22;10891;49.350;19.386;2023-02-19T01:02:22;6.20;99.90
21459;DHT22;10891;49.350;19.386;2023-02-19T01:04:49;6.20;99.90
21459;DHT22;10891;49.350;19.386;2023-02-19T01:07:17;6.20;99.90
21459;DHT22;10891;49.350;19.386;2023-02-19T01:09:44;6.10;99.90
21459;DHT22;10891;49.350;19.386;2023-02-19T01:12:11;6.10;99.90
21459;DHT22;10891;49.350;19.386;2023-02-19T01:14:38;6.00;99.90
21459;DHT22;10891;49.350;19.386;2023-02-19T01:17:04;6.00;99.90
21459;DHT22;10891;49.350;19.386;2023-02-19T01:19:31;5.90;99.90
21459;DHT22;10891;49.350;19.386;2023-02-19T01:21:58;5.90;99.90
21459;DHT22;10891;49.350;19.386;2023-02-19T01:24:26;5.90;99.90
21459;DHT22;10891;49.350;19.386;2023-02-19T01:26:53;5.90;99.90
21459;DHT22;10891;49.350;19.386;2023-02-19T01:29:20;5.90;99.90
21459;DHT22;10891;49.350;19.386;2023-02-19T01:31:47;5.90;99.90
21459;DHT22;10891;49.350;19.386;2023-02-19T01:34:14;5.80;99.90
21459;DHT22;10891;49.350;19.386;2023-02-19T01:36:41;5.90;99.90
21459;DHT22;10891;49.350;19.386;2023-02-19T01:39:08;5.90;99.90
21459;DHT22;10891;49.350;19.386;2023-02-19T01:41:39;5.90;99.90
21459;DHT22;10891;49.350;19.386;2023-02-19T01:44:07;5.90;99.90
21459;DHT22;10891;49.350;19.386;2023-02-19T01:46:53;5.80;99.90
21459;DHT22;10891;49.350;19.386;2023-02-19T01:49:24;5.90;99.90
21459;DHT22;10891;49.350;19.386;2023-02-19T01:51:57;5.90;99.90
21459;DHT22;10891;49.350;19.386;2023-02-19T01:54:26;5.90;99.90
21459;DHT22;10891;49.350;19.386;2023-02-19T01:56:56;5.90;99.90
21459;DHT22;10891;49.350;19.386;2023-02-19T01:59:24;5.80;99.90
21459;DHT22;10891;49.350;19.386;2023-02-19T02:01:51;5.80;99.90
21459;DHT22;10891;49.350;19.386;2023-02-19T02:04:18;5.70;99.90
21459;DHT22;10891;49.350;19.386;2023-02-19T02:06:48;5.70;99.90
21459;DHT22;10891;49.350;19.386;2023-02-19T02:09:15;5.60;99.90
21459;DHT22;10891;49.350;19.386;2023-02-19T02:12:03;5.60;99.90
21459;DHT22;10891;49.350;19.386;2023-02-19T02:14:33;5.50;99.90
21459;DHT22;10891;49.350;19.386;2023-02-19T02:17:11;5.50;99.90
21459;DHT22;10891;49.350;19.386;2023-02-19T02:19:56;5.50;99.90
21459;DHT22;10891;49.350;19.386;2023-02-19T02:22:29;5.40;99.90
21459;DHT22;10891;49.350;19.386;2023-02-19T02:25:15;5.40;99.90
21459;DHT22;10891;49.350;19.386;2023-02-19T02:27:54;5.40;99.90
21459;DHT22;10891;49.350;19.386;2023-02-19T02:30:34;5.40;99.90
21459;DHT22;10891;49.350;19.386;2023-02-19T02:33:11;5.50;99.90
21459;DHT22;10891;49.350;19.386;2023-02-19T02:35:46;5.60;99.90
21459;DHT22;10891;49.350;19.386;2023-02-19T02:38:14;5.50;99.90
21459;DHT22;10891;49.350;19.386;2023-02-19T02:40:43;5.50;99.90
21459;DHT22;10891;49.350;19.386;2023-02-19T02:43:10;5.40;99.90
21459;DHT22;10891;49.350;19.386;2023-02-19T02:45:39;5.30;99.90
21459;DHT22;10891;49.350;19.386;2023-02-19T02:48:15;5.10;99.90
21459;DHT22;10891;49.350;19.386;2023-02-19T02:50:46;5.00;99.90
21459;DHT22;10891;49.350;19.386;2023-02-19T02:53:19;4.90;99.90
21459;DHT22;10891;49.350;19.386;2023-02-19T02:56:04;4.90;99.90
21459;DHT22;10891;49.350;19.386;2023-02-19T02:58:33;5.00;99.90
21459;DHT22;10891;49.350;19.386;2023-02-19T03:01:04;5.00;99.90
21459;DHT22;10891;49.350;19.386;2023-02-19T03:03:53;5.00;99.90
21459;DHT22;10891;49.350;19.386;2023-02-19T03:06:23;5.10;99.90
21459;DHT22;10891;49.350;19.386;2023-02-19T03:08:54;5.10;99.90
21459;DHT22;10891;49.350;19.386;2023-02-19T03:11:23;5.10;99.90
21459;DHT22;10891;49.350;19.386;2023-02-19T03:14:11;5.20;99.90
21459;DHT22;10891;49.350;19.386;2023-02-19T03:17:01;5.20;99.90
21459;DHT22;10891;49.350;19.386;2023-02-19T03:19:50;5.20;99.90
21459;DHT22;10891;49.350;19.386;2023-02-19T03:22:21;5.30;99.90
21459;DHT22;10891;49.350;19.386;2023-02-19T03:24:53;5.30;99.90
21459;DHT22;10891;49.350;19.386;2023-02-19T03:27:40;5.20;99.90
21459;DHT22;10891;49.350;19.386;2023-02-19T03:30:11;5.30;99.90
21459;DHT22;10891;49.350;19.386;2023-02-19T03:32:44;5.30;99.90
21459;DHT22;10891;49.350;19.386;2023-02-19T03:35:15;5.30;99.90
21459;DHT22;10891;49.350;19.386;2023-02-19T03:37:46;5.30;99.90
21459;DHT22;10891;49.350;19.386;2023-02-19T03:40:15;5.30;99.90
21459;DHT22;10891;49.350;19.386;2023-02-19T03:42:48;5.40;99.90
21459;DHT22;10891;49.350;19.386;2023-02-19T03:45:32;5.40;99.90
21459;DHT22;10891;49.350;19.386;2023-02-19T03:48:17;5.40;99.90
21459;DHT22;10891;49.350;19.386;2023-02-19T03:50:47;5.30;99.90
21459;DHT22;10891;49.350;19.386;2023-02-19T03:53:23;5.30;99.90
21459;DHT22;10891;49.350;19.386;2023-02-19T03:56:02;5.30;99.90
21459;DHT22;10891;49.350;19.386;2023-02-19T03:58:34;5.30;99.90
21459;DHT22;10891;49.350;19.386;2023-02-19T04:01:07;5.30;99.90
21459;DHT22;10891;49.350;19.386;2023-02-19T04:03:40;5.30;99.90
21459;DHT22;10891;49.350;19.386;2023-02-19T04:06:11;5.30;99.90
21459;DHT22;10891;49.350;19.386;2023-02-19T04:08:42;5.30;99.90
21459;DHT22;10891;49.350;19.386;2023-02-19T04:11:11;5.40;99.90
21459;DHT22;10891;49.350;19.386;2023-02-19T04:13:43;5.40;99.90
21459;DHT22;10891;49.350;19.386;2023-02-19T04:16:15;5.50;99.90
21459;DHT22;10891;49.350;19.386;2023-02-19T04:18:46;5.50;99.90
21459;DHT22;10891;49.350;19.386;2023-02-19T04:21:15;5.50;99.90
21459;DHT22;10891;49.350;19.386;2023-02-19T04:23:44;5.40;99.90
21459;DHT22;10891;49.350;19.386;2023-02-19T04:26:12;5.40;99.90
21459;DHT22;10891;49.350;19.386;2023-02-19T04:28:41;5.40;99.90
21459;DHT22;10891;49.350;19.386;2023-02-19T04:31:09;5.40;99.90
21459;DHT22;10891;49.350;19.386;2023-02-19T04:33:36;5.40;99.90
21459;DHT22;10891;49.350;19.386;2023-02-19T04:36:08;5.40;99.90
21459;DHT22;10891;49.350;19.386;2023-02-19T04:38:35;5.30;99.90
21459;DHT22;10891;49.350;19.386;2023-02-19T04:41:02;5.30;99.90
21459;DHT22;10891;49.350;19.386;2023-02-19T04:43:29;5.20;99.90
21459;DHT22;10891;49.350;19.386;2023-02-19T04:45:59;5.10;99.90
21459;DHT22;10891;49.350;19.386;2023-02-19T04:48:26;5.10;99.90
21459;DHT22;10891;49.350;19.386;2023-02-19T04:50:53;5.00;99.90
21459;DHT22;10891;49.350;19.386;2023-02-19T04:53:21;5.10;99.90
21459;DHT22;10891;49.350;19.386;2023-02-19T04:55:49;5.10;99.90
21459;DHT22;10891;49.350;19.386;2023-02-19T04:58:18;5.10;99.90
21459;DHT22;10891;49.350;19.386;2023-02-19T05:00:46;5.10;99.90
21459;DHT22;10891;49.350;19.386;2023-02-19T05:03:16;5.10;99.90
21459;DHT22;10891;49.350;19.386;2023-02-19T05:05:43;5.10;99.90
21459;DHT22;10891;49.350;19.386;2023-02-19T05:08:10;5.10;99.90
21459;DHT22;10891;49.350;19.386;2023-02-19T05:10:38;5.10;99.90
21459;DHT22;10891;49.350;19.386;2023-02-19T05:13:06;5.20;99.90
21459;DHT22;10891;49.350;19.386;2023-02-19T05:15:33;5.10;99.90
21459;DHT22;10891;49.350;19.386;2023-02-19T05:18:00;5.20;99.90
21459;DHT22;10891;49.350;19.386;2023-02-19T05:20:27;5.20;99.90
21459;DHT22;10891;49.350;19.386;2023-02-19T05:22:54;5.20;99.90
21459;DHT22;10891;49.350;19.386;2023-02-19T05:25:21;5.20;99.90
21459;DHT22;10891;49.350;19.386;2023-02-19T05:27:49;5.20;99.90
21459;DHT22;10891;49.350;19.386;2023-02-19T05:30:36;5.20;99.90
21459;DHT22;10891;49.350;19.386;2023-02-19T05:33:03;5.20;99.90
21459;DHT22;10891;49.350;19.386;2023-02-19T05:35:30;5.30;99.90
21459;DHT22;10891;49.350;19.386;2023-02-19T05:37:57;5.20;99.90
21459;DHT22;10891;49.350;19.386;2023-02-19T05:40:24;5.20;99.90
21459;DHT22;10891;49.350;19.386;2023-02-19T05:42:52;5.20;99.90
21459;DHT22;10891;49.350;19.386;2023-02-19T05:45:20;5.10;99.90
21459;DHT22;10891;49.350;19.386;2023-02-19T05:47:47;5.10;99.90
21459;DHT22;10891;49.350;19.386;2023-02-19T05:50:14;5.10;99.90
21459;DHT22;10891;49.350;19.386;2023-02-19T05:52:41;5.10;99.90
21459;DHT22;10891;49.350;19.386;2023-02-19T05:55:08;5.10;99.90
21459;DHT22;10891;49.350;19.386;2023-02-19T05:57:39;5.20;99.90
21459;DHT22;10891;49.350;19.386;2023-02-19T06:00:09;5.20;99.90
21459;DHT22;10891;49.350;19.386;2023-02-19T06:02:36;5.20;99.90
21459;DHT22;10891;49.350;19.386;2023-02-19T06:05:04;5.20;99.90
21459;DHT22;10891;49.350;19.386;2023-02-19T06:07:31;5.20;99.90
21459;DHT22;10891;49.350;19.386;2023-02-19T06:09:59;5.30;99.90
21459;DHT22;10891;49.350;19.386;2023-02-19T06:12:26;5.30;99.90
21459;DHT22;10891;49.350;19.386;2023-02-19T06:14:53;5.20;99.90
21459;DHT22;10891;49.350;19.386;2023-02-19T06:17:25;5.20;99.90
21459;DHT22;10891;49.350;19.386;2023-02-19T06:19:53;5.20;99.90
21459;DHT22;10891;49.350;19.386;2023-02-19T06:22:21;5.20;99.90
21459;DHT22;10891;49.350;19.386;2023-02-19T06:24:48;5.30;99.90
21459;DHT22;10891;49.350;19.386;2023-02-19T06:27:15;5.20;99.90
21459;DHT22;10891;49.350;19.386;2023-02-19T06:29:42;5.30;99.90
21459;DHT22;10891;49.350;19.386;2023-02-19T06:32:09;5.30;99.90
21459;DHT22;10891;49.350;19.386;2023-02-19T06:34:37;5.30;99.90
21459;DHT22;10891;49.350;19.386;2023-02-19T06:37:04;5.30;99.90
21459;DHT22;10891;49.350;19.386;2023-02-19T06:39:31;5.30;99.90
21459;DHT22;10891;49.350;19.386;2023-02-19T06:41:58;5.30;99.90
21459;DHT22;10891;49.350;19.386;2023-02-19T06:44:25;5.30;99.90
21459;DHT22;10891;49.350;19.386;2023-02-19T06:46:54;5.30;99.90
21459;DHT22;10891;49.350;19.386;2023-02-19T06:49:21;5.40;99.90
21459;DHT22;10891;49.350;19.386;2023-02-19T06:51:49;5.30;99.90
21459;DHT22;10891;49.350;19.386;2023-02-19T06:54:16;5.40;99.90
21459;DHT22;10891;49.350;19.386;2023-02-19T06:56:43;5.50;99.90
21459;DHT22;10891;49.350;19.386;2023-02-19T06:59:12;5.60;99.90
21459;DHT22;10891;49.350;19.386;2023-02-19T07:01:41;5.60;99.90
21459;DHT22;10891;49.350;19.386;2023-02-19T07:04:11;5.70;99.90
21459;DHT22;10891;49.350;19.386;2023-02-19T07:06:38;5.70;99.90
21459;DHT22;10891;49.350;19.386;2023-02-19T07:09:08;5.80;99.90
21459;DHT22;10891;49.350;19.386;2023-02-19T07:11:37;5.80;99.90
21459;DHT22;10891;49.350;19.386;2023-02-19T07:14:06;5.80;99.90
21459;DHT22;10891;49.350;19.386;2023-02-19T07:16:33;5.90;99.90
21459;DHT22;10891;49.350;19.386;2023-02-19T07:19:02;6.00;99.90
21459;DHT22;10891;49.350;19.386;2023-02-19T07:21:29;6.10;99.90
21459;DHT22;10891;49.350;19.386;2023-02-19T07:23:57;6.00;99.90
21459;DHT22;10891;49.350;19.386;2023-02-19T07:26:25;6.00;99.90
21459;DHT22;10891;49.350;19.386;2023-02-19T07:28:52;6.00;99.90
21459;DHT22;10891;49.350;19.386;2023-02-19T07:31:21;6.00;99.90
21459;DHT22;10891;49.350;19.386;2023-02-19T07:33:48;6.00;99.90
21459;DHT22;10891;49.350;19.386;2023-02-19T07:36:16;5.90;99.90
21459;DHT22;10891;49.350;19.386;2023-02-19T07:38:43;5.90;99.90
21459;DHT22;10891;49.350;19.386;2023-02-19T07:41:11;5.80;99.90
21459;DHT22;10891;49.350;19.386;2023-02-19T07:43:40;5.90;99.90
21459;DHT22;10891;49.350;19.386;2023-02-19T07:46:08;6.00;99.90
21459;DHT22;10891;49.350;19.386;2023-02-19T07:48:37;6.00;99.90
21459;DHT22;10891;49.350;19.386;2023-02-19T07:51:06;5.90;99.90
21459;DHT22;10891;49.350;19.386;2023-02-19T07:53:34;5.90;99.90
21459;DHT22;10891;49.350;19.386;2023-02-19T07:56:03;6.00;99.90
21459;DHT22;10891;49.350;19.386;2023-02-19T07:58:31;5.90;99.90
21459;DHT22;10891;49.350;19.386;2023-02-19T08:01:07;5.90;99.90
21459;DHT22;10891;49.350;19.386;2023-02-19T08:03:35;5.90;99.90
21459;DHT22;10891;49.350;19.386;2023-02-19T08:06:01;5.90;99.90
21459;DHT22;10891;49.350;19.386;2023-02-19T08:08:28;5.90;99.90
21459;DHT22;10891;49.350;19.386;2023-02-19T08:10:59;6.00;99.90
21459;DHT22;10891;49.350;19.386;2023-02-19T08:13:44;5.90;99.90
21459;DHT22;10891;49.350;19.386;2023-02-19T08:16:16;5.80;99.90
21459;DHT22;10891;49.350;19.386;2023-02-19T08:18:44;5.70;99.90
21459;DHT22;10891;49.350;19.386;2023-02-19T08:21:12;5.60;99.90
21459;DHT22;10891;49.350;19.386;2023-02-19T08:23:40;5.50;99.90
21459;DHT22;10891;49.350;19.386;2023-02-19T08:26:07;5.40;99.90
21459;DHT22;10891;49.350;19.386;2023-02-19T08:28:34;5.20;99.90
21459;DHT22;10891;49.350;19.386;2023-02-19T08:31:04;5.20;99.90
21459;DHT22;10891;49.350;19.386;2023-02-19T08:33:33;5.10;99.90
21459;DHT22;10891;49.350;19.386;2023-02-19T08:36:01;5.10;99.90
21459;DHT22;10891;49.350;19.386;2023-02-19T08:38:30;5.20;99.90
21459;DHT22;10891;49.350;19.386;2023-02-19T08:40:58;5.30;99.90
21459;DHT22;10891;49.350;19.386;2023-02-19T08:43:34;5.30;99.90
21459;DHT22;10891;49.350;19.386;2023-02-19T08:46:04;5.30;99.90
21459;DHT22;10891;49.350;19.386;2023-02-19T08:48:33;5.40;99.90
21459;DHT22;10891;49.350;19.386;2023-02-19T08:51:02;5.40;99.90
21459;DHT22;10891;49.350;19.386;2023-02-19T08:53:32;5.60;99.90
21459;DHT22;10891;49.350;19.386;2023-02-19T08:56:04;5.60;99.90
21459;DHT22;10891;49.350;19.386;2023-02-19T08:58:31;5.60;99.90
21459;DHT22;10891;49.350;19.386;2023-02-19T09:00:59;5.50;99.90
21459;DHT22;10891;49.350;19.386;2023-02-19T09:03:27;5.30;99.90
21459;DHT22;10891;49.350;19.386;2023-02-19T09:05:56;5.20;99.90
21459;DHT22;10891;49.350;19.386;2023-02-19T09:08:22;5.10;99.90
21459;DHT22;10891;49.350;19.386;2023-02-19T09:10:57;5.00;99.90
21459;DHT22;10891;49.350;19.386;2023-02-19T09:13:24;4.90;99.90
21459;DHT22;10891;49.350;19.386;2023-02-19T09:15:51;5.10;99.90
21459;DHT22;10891;49.350;19.386;2023-02-19T09:18:18;5.20;99.90
21459;DHT22;10891;49.350;19.386;2023-02-19T09:20:45;5.30;99.90
21459;DHT22;10891;49.350;19.386;2023-02-19T09:23:13;5.50;99.90
21459;DHT22;10891;49.350;19.386;2023-02-19T09:25:40;5.50;99.90
21459;DHT22;10891;49.350;19.386;2023-02-19T09:28:07;5.50;99.90
21459;DHT22;10891;49.350;19.386;2023-02-19T09:30:34;5.70;99.90
21459;DHT22;10891;49.350;19.386;2023-02-19T09:33:03;5.70;99.90
21459;DHT22;10891;49.350;19.386;2023-02-19T09:35:31;5.80;99.90
21459;DHT22;10891;49.350;19.386;2023-02-19T09:37:58;5.90;99.90
21459;DHT22;10891;49.350;19.386;2023-02-19T09:40:29;5.90;99.90
21459;DHT22;10891;49.350;19.386;2023-02-19T09:42:57;5.80;99.90
21459;DHT22;10891;49.350;19.386;2023-02-19T09:45:25;5.60;99.90
21459;DHT22;10891;49.350;19.386;2023-02-19T09:47:53;5.60;99.90
21459;DHT22;10891;49.350;19.386;2023-02-19T09:50:26;5.60;99.90
21459;DHT22;10891;49.350;19.386;2023-02-19T09:52:59;5.60;99.90
21459;DHT22;10891;49.350;19.386;2023-02-19T09:55:31;5.70;99.90
21459;DHT22;10891;49.350;19.386;2023-02-19T09:58:07;5.90;99.90
21459;DHT22;10891;49.350;19.386;2023-02-19T10:00:38;6.10;99.90
21459;DHT22;10891;49.350;19.386;2023-02-19T10:03:09;6.30;99.90
21459;DHT22;10891;49.350;19.386;2023-02-19T10:05:39;6.40;99.90
21459;DHT22;10891;49.350;19.386;2023-02-19T10:08:11;6.50;99.90
21459;DHT22;10891;49.350;19.386;2023-02-19T10:10:43;6.40;99.90
21459;DHT22;10891;49.350;19.386;2023-02-19T10:13:17;6.50;99.90
21459;DHT22;10891;49.350;19.386;2023-02-19T10:15:46;6.60;99.90
21459;DHT22;10891;49.350;19.386;2023-02-19T10:18:19;6.60;99.90
21459;DHT22;10891;49.350;19.386;2023-02-19T10:20:48;6.50;99.90
21459;DHT22;10891;49.350;19.386;2023-02-19T10:23:16;6.40;99.90
21459;DHT22;10891;49.350;19.386;2023-02-19T10:25:46;6.40;99.90
21459;DHT22;10891;49.350;19.386;2023-02-19T10:28:17;6.30;99.90
21459;DHT22;10891;49.350;19.386;2023-02-19T10:30:49;6.20;99.90
21459;DHT22;10891;49.350;19.386;2023-02-19T10:33:16;6.40;99.90
21459;DHT22;10891;49.350;19.386;2023-02-19T10:35:53;6.70;99.90
21459;DHT22;10891;49.350;19.386;2023-02-19T10:38:22;7.00;99.90
21459;DHT22;10891;49.350;19.386;2023-02-19T10:40:58;7.20;99.90
21459;DHT22;10891;49.350;19.386;2023-02-19T10:43:28;7.50;99.90
21459;DHT22;10891;49.350;19.386;2023-02-19T10:46:01;7.90;99.90
21459;DHT22;10891;49.350;19.386;2023-02-19T10:48:31;8.30;99.90
21459;DHT22;10891;49.350;19.386;2023-02-19T10:51:03;8.70;99.90
21459;DHT22;10891;49.350;19.386;2023-02-19T10:53:41;9.10;99.90
21459;DHT22;10891;49.350;19.386;2023-02-19T10:56:12;9.40;99.90
21459;DHT22;10891;49.350;19.386;2023-02-19T10:58:41;9.50;99.90
21459;DHT22;10891;49.350;19.386;2023-02-19T11:01:19;9.60;99.90
21459;DHT22;10891;49.350;19.386;2023-02-19T11:03:48;9.60;99.90
21459;DHT22;10891;49.350;19.386;2023-02-19T11:06:18;9.50;99.90
21459;DHT22;10891;49.350;19.386;2023-02-19T11:08:54;9.50;99.90
21459;DHT22;10891;49.350;19.386;2023-02-19T11:11:34;9.60;99.90
21459;DHT22;10891;49.350;19.386;2023-02-19T11:14:04;9.80;99.90
21459;DHT22;10891;49.350;19.386;2023-02-19T11:16:41;9.60;99.90
21459;DHT22;10891;49.350;19.386;2023-02-19T11:19:28;9.60;99.90
21459;DHT22;10891;49.350;19.386;2023-02-19T11:21:58;9.30;99.90
21459;DHT22;10891;49.350;19.386;2023-02-19T11:24:30;9.20;99.90
21459;DHT22;10891;49.350;19.386;2023-02-19T11:27:03;9.30;99.90
21459;DHT22;10891;49.350;19.386;2023-02-19T11:29:30;9.30;99.90
21459;DHT22;10891;49.350;19.386;2023-02-19T11:32:21;9.30;99.90
21459;DHT22;10891;49.350;19.386;2023-02-19T11:34:49;9.10;99.90
21459;DHT22;10891;49.350;19.386;2023-02-19T11:37:18;8.80;99.90
21459;DHT22;10891;49.350;19.386;2023-02-19T11:39:47;8.60;99.90
21459;DHT22;10891;49.350;19.386;2023-02-19T11:42:28;8.00;99.90
21459;DHT22;10891;49.350;19.386;2023-02-19T11:45:16;7.90;99.90
21459;DHT22;10891;49.350;19.386;2023-02-19T11:48:13;7.60;99.90
21459;DHT22;10891;49.350;19.386;2023-02-19T11:50:52;7.10;99.90
21459;DHT22;10891;49.350;19.386;2023-02-19T11:53:25;6.60;99.90
21459;DHT22;10891;49.350;19.386;2023-02-19T11:56:08;6.20;99.90
21459;DHT22;10891;49.350;19.386;2023-02-19T11:58:59;6.30;99.90
21459;DHT22;10891;49.350;19.386;2023-02-19T12:05:04;6.50;99.90
21459;DHT22;10891;49.350;19.386;2023-02-19T12:07:56;6.80;99.90
21459;DHT22;10891;49.350;19.386;2023-02-19T12:10:34;6.50;99.90
21459;DHT22;10891;49.350;19.386;2023-02-19T12:13:09;6.30;99.90
21459;DHT22;10891;49.350;19.386;2023-02-19T12:16:02;6.40;99.90
21459;DHT22;10891;49.350;19.386;2023-02-19T12:21:40;6.00;99.90
21459;DHT22;10891;49.350;19.386;2023-02-19T12:24:22;6.00;99.90
21459;DHT22;10891;49.350;19.386;2023-02-19T12:27:03;6.00;99.90
21459;DHT22;10891;49.350;19.386;2023-02-19T12:29:43;6.10;99.90
21459;DHT22;10891;49.350;19.386;2023-02-19T12:38:20;6.50;99.90
21459;DHT22;10891;49.350;19.386;2023-02-19T12:41:11;6.80;99.90
21459;DHT22;10891;49.350;19.386;2023-02-19T12:43:45;6.80;99.90
21459;DHT22;10891;49.350;19.386;2023-02-19T12:46:21;6.90;99.90
21459;DHT22;10891;49.350;19.386;2023-02-19T12:48:55;6.90;99.90
21459;DHT22;10891;49.350;19.386;2023-02-19T12:51:27;7.20;99.90
21459;DHT22;10891;49.350;19.386;2023-02-19T12:54:00;7.20;99.90
21459;DHT22;10891;49.350;19.386;2023-02-19T12:56:31;7.80;99.90
21459;DHT22;10891;49.350;19.386;2023-02-19T12:59:04;8.50;99.90
21459;DHT22;10891;49.350;19.386;2023-02-19T13:01:38;9.20;99.90
21459;DHT22;10891;49.350;19.386;2023-02-19T13:04:20;9.40;99.90
21459;DHT22;10891;49.350;19.386;2023-02-19T13:06:52;9.50;99.90
21459;DHT22;10891;49.350;19.386;2023-02-19T13:09:23;9.30;99.90
21459;DHT22;10891;49.350;19.386;2023-02-19T13:11:58;8.60;99.90
21459;DHT22;10891;49.350;19.386;2023-02-19T13:14:28;8.30;99.90
21459;DHT22;10891;49.350;19.386;2023-02-19T13:16:59;8.10;99.90
21459;DHT22;10891;49.350;19.386;2023-02-19T13:19:30;8.30;99.90
21459;DHT22;10891;49.350;19.386;2023-02-19T13:22:03;8.40;99.90
21459;DHT22;10891;49.350;19.386;2023-02-19T13:24:54;8.70;99.90
21459;DHT22;10891;49.350;19.386;2023-02-19T13:27:34;8.70;99.90
21459;DHT22;10891;49.350;19.386;2023-02-19T13:30:17;8.60;99.90
21459;DHT22;10891;49.350;19.386;2023-02-19T13:33:00;8.40;99.90
21459;DHT22;10891;49.350;19.386;2023-02-19T13:36:00;8.70;99.90
21459;DHT22;10891;49.350;19.386;2023-02-19T13:38:31;8.80;99.90
21459;DHT22;10891;49.350;19.386;2023-02-19T13:40:59;8.60;99.90
21459;DHT22;10891;49.350;19.386;2023-02-19T13:43:29;8.10;99.90
21459;DHT22;10891;49.350;19.386;2023-02-19T13:46:01;7.80;99.90
21459;DHT22;10891;49.350;19.386;2023-02-19T13:48:38;7.80;99.90
21459;DHT22;10891;49.350;19.386;2023-02-19T13:51:43;7.90;99.90
21459;DHT22;10891;49.350;19.386;2023-02-19T13:54:22;7.90;99.90
21459;DHT22;10891;49.350;19.386;2023-02-19T13:57:25;7.70;99.90
21459;DHT22;10891;49.350;19.386;2023-02-19T13:59:56;7.50;99.90
21459;DHT22;10891;49.350;19.386;2023-02-19T14:02:28;7.10;99.90
21459;DHT22;10891;49.350;19.386;2023-02-19T14:05:04;6.80;99.90
21459;DHT22;10891;49.350;19.386;2023-02-19T14:07:37;6.70;99.90
21459;DHT22;10891;49.350;19.386;2023-02-19T14:10:50;6.80;99.90
21459;DHT22;10891;49.350;19.386;2023-02-19T14:13:57;6.90;99.90
21459;DHT22;10891;49.350;19.386;2023-02-19T14:19:13;7.00;99.90
21459;DHT22;10891;49.350;19.386;2023-02-19T14:21:41;7.00;99.90
21459;DHT22;10891;49.350;19.386;2023-02-19T14:24:13;6.60;99.90
21459;DHT22;10891;49.350;19.386;2023-02-19T14:26:42;6.60;99.90
21459;DHT22;10891;49.350;19.386;2023-02-19T14:29:13;6.40;99.90
21459;DHT22;10891;49.350;19.386;2023-02-19T14:31:44;6.20;99.90
21459;DHT22;10891;49.350;19.386;2023-02-19T14:34:15;5.90;99.90
21459;DHT22;10891;49.350;19.386;2023-02-19T14:36:48;5.90;99.90
21459;DHT22;10891;49.350;19.386;2023-02-19T14:39:20;5.70;99.90
21459;DHT22;10891;49.350;19.386;2023-02-19T14:41:51;5.50;99.90
21459;DHT22;10891;49.350;19.386;2023-02-19T14:44:20;5.40;99.90
21459;DHT22;10891;49.350;19.386;2023-02-19T14:46:56;5.30;99.90
21459;DHT22;10891;49.350;19.386;2023-02-19T14:49:29;5.20;99.90
21459;DHT22;10891;49.350;19.386;2023-02-19T14:52:01;5.10;99.90
21459;DHT22;10891;49.350;19.386;2023-02-19T14:54:41;5.00;99.90
21459;DHT22;10891;49.350;19.386;2023-02-19T14:57:14;4.90;99.90
21459;DHT22;10891;49.350;19.386;2023-02-19T14:59:51;4.90;99.90
21459;DHT22;10891;49.350;19.386;2023-02-19T15:02:20;4.90;99.90
21459;DHT22;10891;49.350;19.386;2023-02-19T15:04:48;4.70;99.90
21459;DHT22;10891;49.350;19.386;2023-02-19T15:07:18;4.40;99.90
21459;DHT22;10891;49.350;19.386;2023-02-19T15:09:53;4.20;99.90
21459;DHT22;10891;49.350;19.386;2023-02-19T15:12:34;4.10;99.90
21459;DHT22;10891;49.350;19.386;2023-02-19T15:15:21;4.10;99.90
21459;DHT22;10891;49.350;19.386;2023-02-19T15:17:50;4.00;99.90
21459;DHT22;10891;49.350;19.386;2023-02-19T15:20:24;4.00;99.90
21459;DHT22;10891;49.350;19.386;2023-02-19T15:22:52;3.90;99.90
21459;DHT22;10891;49.350;19.386;2023-02-19T15:25:23;3.90;99.90
21459;DHT22;10891;49.350;19.386;2023-02-19T15:27:53;3.70;99.90
21459;DHT22;10891;49.350;19.386;2023-02-19T15:30:22;3.70;99.90
21459;DHT22;10891;49.350;19.386;2023-02-19T15:32:53;3.60;99.90
21459;DHT22;10891;49.350;19.386;2023-02-19T15:35:33;3.60;99.90
21459;DHT22;10891;49.350;19.386;2023-02-19T15:38:02;3.60;99.90
21459;DHT22;10891;49.350;19.386;2023-02-19T15:40:34;3.60;99.90
21459;DHT22;10891;49.350;19.386;2023-02-19T15:43:03;3.60;99.90
21459;DHT22;10891;49.350;19.386;2023-02-19T15:45:35;3.60;99.90
21459;DHT22;10891;49.350;19.386;2023-02-19T15:48:07;3.50;99.90
21459;DHT22;10891;49.350;19.386;2023-02-19T15:50:38;3.30;99.90
21459;DHT22;10891;49.350;19.386;2023-02-19T15:53:12;3.30;99.90
21459;DHT22;10891;49.350;19.386;2023-02-19T15:55:44;3.20;99.90
21459;DHT22;10891;49.350;19.386;2023-02-19T15:58:18;2.90;99.90
21459;DHT22;10891;49.350;19.386;2023-02-19T16:00:51;2.90;99.90
21459;DHT22;10891;49.350;19.386;2023-02-19T16:03:29;3.00;99.90
21459;DHT22;10891;49.350;19.386;2023-02-19T16:05:59;2.80;99.90
21459;DHT22;10891;49.350;19.386;2023-02-19T16:08:31;2.90;99.90
21459;DHT22;10891;49.350;19.386;2023-02-19T16:11:03;2.80;99.90
21459;DHT22;10891;49.350;19.386;2023-02-19T16:13:32;2.80;99.90